createdAt,value
2018-08-04T00:01:11.349Z,26.80
2018-08-04T00:08:36.897Z,26.60
2018-08-04T00:11:05.660Z,26.60
2018-08-04T00:13:34.386Z,26.50
2018-08-04T00:16:03.122Z,26.50
2018-08-04T00:18:31.818Z,26.30
2018-08-04T00:21:00.542Z,30.70
2018-08-04T00:28:26.021Z,26.20
2018-08-04T00:30:54.809Z,26.20
2018-08-04T00:35:51.908Z,26.10
2018-08-04T00:38:20.657Z,26.10
2018-08-04T00:40:49.340Z,26.10
2018-08-04T00:50:43.207Z,26.00
2018-08-04T00:55:40.238Z,25.90
2018-08-04T01:08:02.565Z,25.60
2018-08-04T01:10:31.285Z,25.60
2018-08-04T01:15:28.386Z,25.50
2018-08-04T01:20:25.493Z,25.50
2018-08-04T01:22:54.218Z,25.40
2018-08-04T01:27:51.304Z,25.40
2018-08-04T01:30:19.984Z,25.30
2018-08-04T01:32:48.757Z,25.30
2018-08-04T01:35:17.452Z,25.20
2018-08-04T01:40:14.585Z,25.10
2018-08-04T01:42:43.312Z,25.00
2018-08-04T01:45:11.996Z,25.00
2018-08-04T01:50:09.143Z,24.90
2018-08-04T01:55:06.309Z,24.80
2018-08-04T02:02:31.890Z,24.70
2018-08-04T02:07:29.009Z,24.70
2018-08-04T02:09:57.723Z,24.60
2018-08-04T02:12:26.428Z,24.60
2018-08-04T02:14:55.112Z,24.50
2018-08-04T02:17:23.822Z,24.50
2018-08-04T02:19:52.481Z,24.50
2018-08-04T02:24:49.562Z,24.40
2018-08-04T02:27:18.238Z,24.30
2018-08-04T02:34:43.760Z,24.30
2018-08-04T02:37:12.432Z,24.20
2018-08-04T02:39:41.128Z,24.20
2018-08-04T02:42:09.816Z,24.20
2018-08-04T02:47:06.880Z,24.20
2018-08-04T02:52:04.043Z,24.00
2018-08-04T02:54:32.755Z,24.00
2018-08-04T02:57:01.482Z,24.00
2018-08-04T02:59:30.218Z,23.90
2018-08-04T03:01:58.922Z,23.90
2018-08-04T03:04:27.787Z,23.90
2018-08-04T03:09:24.861Z,23.80
2018-08-04T03:11:53.552Z,23.80
2018-08-04T03:16:50.710Z,23.70
2018-08-04T03:19:19.432Z,23.70
2018-08-04T03:21:48.109Z,23.80
2018-08-04T03:29:13.556Z,23.70
2018-08-04T03:31:42.253Z,23.60
2018-08-04T03:34:11.743Z,23.50
2018-08-04T03:36:40.433Z,23.50
2018-08-04T03:41:38.977Z,23.40
2018-08-04T03:44:07.720Z,23.40
2018-08-04T03:46:36.734Z,23.40
2018-08-04T03:49:05.459Z,23.40
2018-08-04T03:51:34.185Z,23.40
2018-08-04T03:54:02.942Z,23.40
2018-08-04T03:59:00.007Z,23.30
2018-08-04T04:01:28.696Z,23.30
2018-08-04T04:03:57.388Z,23.30
2018-08-04T04:06:26.094Z,23.30
2018-08-04T04:11:23.258Z,23.30
2018-08-04T04:16:20.526Z,23.30
2018-08-04T04:18:49.245Z,23.20
2018-08-04T04:21:17.960Z,23.30
2018-08-04T04:28:43.421Z,23.30
2018-08-04T04:31:12.130Z,23.30
2018-08-04T04:33:40.802Z,23.30
2018-08-04T04:36:09.501Z,23.30
2018-08-04T04:43:35.796Z,23.40
2018-08-04T04:46:04.487Z,23.50
2018-08-04T04:51:01.533Z,23.60
2018-08-04T04:53:30.214Z,23.60
2018-08-04T04:58:27.576Z,23.70
2018-08-04T05:00:56.278Z,23.70
2018-08-04T05:05:53.985Z,23.90
2018-08-04T05:08:22.650Z,24.00
2018-08-04T05:10:51.336Z,24.10
2018-08-04T05:23:13.729Z,24.80
2018-08-04T05:25:42.428Z,25.00
2018-08-04T05:30:39.539Z,25.40
2018-08-04T05:35:36.632Z,25.50
2018-08-04T05:38:05.342Z,25.60
2018-08-04T05:40:34.037Z,25.70
2018-08-04T05:43:02.708Z,25.70
2018-08-04T05:50:29.100Z,25.80
2018-08-04T05:52:57.826Z,25.80
2018-08-04T05:55:26.554Z,25.70
2018-08-04T05:57:55.269Z,25.70
2018-08-04T06:02:53.164Z,25.60
2018-08-04T06:10:19.708Z,25.60
2018-08-04T06:15:16.816Z,25.30
2018-08-04T06:17:45.548Z,25.20
2018-08-04T06:20:14.226Z,25.10
2018-08-04T06:22:43.181Z,25.10
2018-08-04T06:25:11.890Z,25.10
2018-08-04T06:29:00.160Z,25.20
2018-08-04T06:31:28.911Z,25.20
2018-08-04T06:33:57.617Z,25.30
2018-08-04T06:36:26.332Z,25.50
2018-08-04T06:38:55.054Z,25.60
2018-08-04T06:43:52.459Z,25.90
2018-08-04T06:46:22.101Z,25.90
2018-08-04T06:48:50.822Z,25.90
2018-08-04T06:53:48.009Z,26.00
2018-08-04T06:56:16.709Z,26.00
2018-08-04T06:58:45.523Z,26.20
2018-08-04T07:01:14.228Z,26.30
2018-08-04T07:03:42.990Z,26.40
2018-08-04T07:06:11.730Z,26.60
2018-08-04T07:11:08.943Z,27.00
2018-08-04T07:16:06.105Z,27.50
2018-08-04T07:18:34.810Z,28.40
2018-08-04T07:21:03.590Z,29.60
2018-08-04T07:26:02.170Z,31.70
2018-08-04T07:38:24.580Z,37.00
2018-08-04T07:43:21.729Z,38.40
2018-08-04T07:45:50.444Z,38.70
2018-08-04T07:48:19.367Z,39.10
2018-08-04T07:55:44.926Z,38.70
2018-08-04T08:10:35.854Z,39.00
2018-08-04T08:13:04.481Z,39.40
2018-08-04T08:15:33.697Z,39.40
2018-08-04T08:20:30.848Z,38.90
2018-08-04T08:23:00.282Z,38.90
2018-08-04T08:25:29.001Z,40.10
2018-08-04T08:27:57.726Z,40.10
2018-08-04T08:30:26.491Z,41.40
2018-08-04T08:37:52.056Z,41.80
2018-08-04T08:40:21.406Z,41.90
2018-08-04T08:42:50.167Z,41.90
2018-08-04T08:47:47.289Z,42.60
2018-08-04T08:50:16.687Z,43.70
2018-08-04T08:52:45.418Z,44.70
2018-08-04T09:05:10.914Z,45.70
2018-08-04T09:07:39.892Z,46.20
2018-08-04T09:12:39.489Z,46.00
2018-08-04T09:15:09.129Z,45.50
2018-08-04T09:20:08.173Z,45.00
2018-08-04T09:25:06.221Z,44.90
2018-08-04T09:27:35.021Z,46.00
2018-08-04T09:32:32.791Z,46.80
2018-08-04T09:37:29.952Z,48.10
2018-08-04T09:39:58.641Z,48.20
2018-08-04T09:42:27.402Z,48.90
2018-08-04T09:44:56.222Z,49.20
2018-08-04T09:49:53.447Z,49.50
2018-08-04T09:52:22.172Z,49.90
2018-08-04T09:54:50.865Z,49.90
2018-08-04T09:59:48.053Z,50.20
2018-08-04T10:02:21.023Z,50.60
2018-08-04T10:04:49.798Z,51.30
2018-08-04T10:07:18.582Z,51.20
2018-08-04T10:09:47.378Z,51.40
2018-08-04T10:12:21.469Z,51.00
2018-08-04T10:14:50.235Z,51.00
2018-08-04T10:17:18.921Z,51.40
2018-08-04T10:19:47.661Z,51.50
2018-08-04T10:24:44.918Z,51.30
2018-08-04T10:27:13.713Z,51.40
2018-08-04T10:29:42.494Z,51.30
2018-08-04T10:32:11.452Z,51.00
2018-08-04T10:34:40.069Z,50.60
2018-08-04T10:37:09.785Z,50.60
2018-08-04T10:39:38.530Z,50.30
2018-08-04T10:42:07.253Z,49.40
2018-08-04T10:44:36.726Z,49.30
2018-08-04T10:47:05.444Z,48.90
2018-08-04T10:49:34.176Z,48.70
2018-08-04T10:54:32.861Z,48.70
2018-08-04T10:57:02.176Z,48.60
2018-08-04T10:59:31.233Z,48.30
2018-08-04T11:02:01.057Z,48.30
2018-08-04T11:04:30.637Z,48.00
2018-08-04T11:07:00.005Z,48.00
2018-08-04T11:09:29.934Z,47.50
2018-08-04T11:12:00.171Z,47.10
2018-08-04T11:14:29.687Z,46.70
2018-08-04T11:16:59.246Z,46.60
2018-08-04T11:21:57.646Z,45.90
2018-08-04T11:24:27.479Z,45.90
2018-08-04T11:26:57.127Z,45.60
2018-08-04T11:29:26.775Z,45.60
2018-08-04T11:31:56.388Z,45.30
2018-08-04T11:34:25.549Z,45.00
2018-08-04T11:36:55.409Z,44.70
2018-08-04T11:39:25.899Z,44.40
2018-08-04T11:41:55.469Z,44.30
2018-08-04T11:44:25.389Z,47.60
2018-08-04T11:46:55.972Z,43.80
2018-08-04T11:49:26.175Z,43.70
2018-08-04T11:51:56.835Z,43.20
2018-08-04T11:54:27.047Z,43.10
2018-08-04T11:56:56.892Z,43.00
2018-08-04T11:59:27.203Z,42.80
2018-08-04T12:01:56.626Z,42.70
2018-08-04T12:04:25.914Z,42.20
2018-08-04T12:06:56.293Z,42.10
2018-08-04T12:11:56.250Z,41.70
2018-08-04T12:14:27.350Z,41.60
2018-08-04T12:16:57.768Z,41.40
2018-08-04T12:19:27.932Z,40.80
2018-08-04T12:21:57.750Z,40.80
2018-08-04T12:24:27.562Z,40.70
2018-08-04T12:26:57.709Z,40.80
2018-08-04T12:29:28.210Z,40.70
2018-08-04T12:31:57.978Z,40.50
2018-08-04T12:34:28.661Z,40.40
2018-08-04T12:36:58.435Z,40.30
2018-08-04T12:39:28.989Z,40.30
2018-08-04T12:41:59.119Z,40.20
2018-08-04T12:44:31.734Z,40.10
2018-08-04T12:49:31.509Z,40.00
2018-08-04T12:52:00.926Z,40.00
2018-08-04T12:56:58.054Z,39.80
2018-08-04T12:59:26.825Z,39.80
2018-08-04T13:01:55.906Z,39.90
2018-08-04T13:04:24.673Z,39.70
2018-08-04T13:06:53.412Z,39.50
2018-08-04T13:09:22.233Z,39.30
2018-08-04T13:11:51.032Z,39.10
2018-08-04T13:14:19.751Z,38.90
2018-08-04T13:16:48.465Z,38.80
2018-08-04T13:19:17.182Z,38.80
2018-08-04T13:21:45.893Z,38.70
2018-08-04T13:24:14.613Z,38.70
2018-08-04T13:26:43.422Z,38.60
2018-08-04T13:29:12.181Z,38.30
2018-08-04T13:31:41.853Z,38.10
2018-08-04T13:34:12.432Z,38.10
2018-08-04T13:36:42.149Z,37.70
2018-08-04T13:41:42.459Z,37.60
2018-08-04T13:44:12.465Z,37.60
2018-08-04T13:46:42.261Z,37.50
2018-08-04T13:49:12.234Z,37.30
2018-08-04T13:51:42.169Z,37.20
2018-08-04T13:56:41.485Z,37.00
2018-08-04T13:59:11.101Z,34.90
2018-08-04T14:04:10.284Z,36.70
2018-08-04T14:06:40.591Z,36.60
2018-08-04T14:09:10.988Z,36.50
2018-08-04T14:11:41.043Z,36.40
2018-08-04T14:14:17.672Z,36.40
2018-08-04T14:16:46.940Z,36.30
2018-08-04T14:19:16.745Z,36.30
2018-08-04T14:21:46.798Z,36.30
2018-08-04T14:24:19.034Z,36.20
2018-08-04T14:29:17.530Z,36.00
2018-08-04T14:31:47.562Z,36.00
2018-08-04T14:36:46.533Z,35.80
2018-08-04T14:39:16.214Z,35.70
2018-08-04T14:41:45.409Z,35.60
2018-08-04T14:44:15.101Z,35.70
2018-08-04T14:49:14.098Z,35.60
2018-08-04T14:51:43.833Z,35.60
2018-08-04T14:54:14.127Z,35.60
2018-08-04T14:59:13.625Z,35.60
2018-08-04T15:01:43.520Z,35.50
2018-08-04T15:04:13.767Z,35.50
2018-08-04T15:06:43.953Z,35.40
2018-08-04T15:09:14.028Z,35.40
2018-08-04T15:14:13.585Z,35.40
2018-08-04T15:16:43.688Z,35.10
2018-08-04T15:19:17.085Z,35.10
2018-08-04T15:24:16.869Z,35.00
2018-08-04T15:26:46.557Z,35.00
2018-08-04T15:29:16.342Z,34.90
2018-08-04T15:31:46.076Z,34.90
2018-08-04T15:36:43.946Z,34.70
2018-08-04T15:39:13.525Z,34.80
2018-08-04T15:41:42.695Z,34.80
2018-08-04T15:44:12.836Z,34.80
2018-08-04T15:46:42.893Z,34.80
2018-08-04T15:49:20.024Z,34.70
2018-08-04T15:51:52.512Z,34.60
2018-08-04T15:54:21.895Z,34.50
2018-08-04T15:56:50.947Z,34.40
2018-08-04T15:59:20.553Z,34.40
2018-08-04T16:01:50.037Z,34.40
2018-08-04T16:04:21.248Z,34.10
2018-08-04T16:06:50.347Z,33.90
2018-08-04T16:09:20.761Z,33.80
2018-08-04T16:11:51.446Z,33.70
2018-08-04T16:14:22.043Z,33.80
2018-08-04T16:16:51.554Z,33.90
2018-08-04T16:19:21.181Z,33.80
2018-08-04T16:21:50.495Z,33.80
2018-08-04T16:24:20.011Z,33.70
2018-08-04T16:26:49.519Z,33.70
2018-08-04T16:29:18.857Z,33.70
2018-08-04T16:31:49.064Z,33.70
2018-08-04T16:34:18.541Z,33.70
2018-08-04T16:36:51.635Z,36.20
2018-08-04T16:39:21.030Z,33.60
2018-08-04T16:41:54.892Z,33.60
2018-08-04T16:44:25.901Z,33.40
2018-08-04T16:46:55.919Z,33.30
2018-08-04T16:49:25.999Z,33.20
2018-08-04T16:51:54.955Z,33.10
2018-08-04T16:54:24.725Z,33.00
2018-08-04T16:56:54.960Z,33.00
2018-08-04T16:59:25.231Z,33.00
2018-08-04T17:01:54.194Z,32.90
2018-08-04T17:04:23.958Z,32.90
2018-08-04T17:09:22.475Z,32.90
2018-08-04T17:11:51.716Z,32.80
2018-08-04T17:14:21.069Z,32.80
2018-08-04T17:16:51.900Z,32.70
2018-08-04T17:19:21.019Z,32.70
2018-08-04T17:21:53.182Z,32.70
2018-08-04T17:24:22.869Z,32.60
2018-08-04T17:26:57.838Z,32.50
2018-08-04T17:29:27.732Z,32.50
2018-08-04T17:31:56.796Z,32.40
2018-08-04T17:34:26.244Z,32.30
2018-08-04T17:36:55.989Z,32.20
2018-08-04T17:39:24.906Z,32.20
2018-08-04T17:41:54.646Z,32.10
2018-08-04T17:44:24.693Z,32.00
2018-08-04T17:46:54.272Z,32.00
2018-08-04T17:49:23.646Z,32.00
2018-08-04T17:51:53.338Z,31.90
2018-08-04T17:54:22.649Z,31.80
2018-08-04T17:56:51.683Z,31.80
2018-08-04T17:59:21.301Z,31.80
2018-08-04T18:01:50.278Z,31.70
2018-08-04T18:04:19.810Z,31.60
2018-08-04T18:06:49.520Z,31.50
2018-08-04T18:09:18.899Z,31.40
2018-08-04T18:14:22.293Z,31.20
2018-08-04T18:16:51.007Z,31.20
2018-08-04T18:19:19.741Z,31.10
2018-08-04T18:24:16.911Z,30.90
2018-08-04T18:26:45.612Z,30.90
2018-08-04T18:29:14.406Z,30.70
2018-08-04T18:34:11.828Z,30.50
2018-08-04T18:36:41.321Z,30.50
2018-08-04T18:39:10.620Z,30.40
2018-08-04T18:41:39.903Z,30.30
2018-08-04T18:44:08.873Z,30.30
2018-08-04T18:46:37.768Z,30.20
2018-08-04T18:54:03.895Z,30.10
2018-08-04T18:56:32.978Z,30.10
2018-08-04T18:59:03.157Z,30.00
2018-08-04T19:01:33.538Z,29.90
2018-08-04T19:04:03.365Z,29.80
2018-08-04T19:06:33.630Z,29.80
2018-08-04T19:09:02.738Z,29.70
2018-08-04T19:11:31.844Z,29.60
2018-08-04T19:14:01.239Z,29.60
2018-08-04T19:16:31.450Z,29.60
2018-08-04T19:19:00.142Z,29.50
2018-08-04T19:21:29.545Z,29.50
2018-08-04T19:23:58.309Z,29.30
2018-08-04T19:26:27.160Z,29.20
2018-08-04T19:28:56.170Z,29.10
2018-08-04T19:31:26.976Z,29.00
2018-08-04T19:33:56.248Z,29.00
2018-08-04T19:38:53.488Z,28.80
2018-08-04T19:41:22.351Z,28.80
2018-08-04T19:46:19.744Z,28.70
2018-08-04T19:48:48.444Z,28.70
2018-08-04T19:51:17.317Z,28.60
2018-08-04T19:53:46.169Z,28.50
2018-08-04T19:56:15.007Z,28.50
2018-08-04T20:01:12.417Z,28.40
2018-08-04T20:03:41.307Z,28.40
2018-08-04T20:06:09.969Z,28.30
2018-08-04T20:08:38.937Z,28.30
2018-08-04T20:11:07.765Z,28.30
2018-08-04T20:13:36.661Z,28.30
2018-08-04T20:16:05.549Z,28.20
2018-08-04T20:18:34.305Z,28.20
2018-08-04T20:21:05.083Z,28.10
2018-08-04T20:23:33.878Z,28.10
2018-08-04T20:26:02.828Z,28.20
2018-08-04T20:28:32.628Z,28.20
2018-08-04T20:33:36.624Z,28.10
2018-08-04T20:36:24.947Z,28.00
2018-08-04T20:41:27.019Z,27.80
2018-08-04T20:43:58.141Z,27.70
2018-08-04T20:46:34.563Z,27.70
2018-08-04T20:49:04.470Z,27.70
2018-08-04T20:59:38.706Z,27.30
2018-08-04T21:02:09.989Z,27.30
2018-08-04T21:04:40.897Z,27.20
2018-08-04T21:14:50.250Z,27.00
2018-08-04T21:20:02.365Z,26.90
2018-08-04T21:25:06.859Z,26.80
2018-08-04T21:27:37.087Z,26.70
2018-08-04T21:30:06.898Z,26.70
2018-08-04T21:35:04.366Z,26.60
2018-08-04T21:37:33.097Z,26.60
2018-08-04T21:40:02.558Z,26.60
2018-08-04T21:42:31.226Z,26.50
2018-08-04T21:44:59.946Z,26.50
2018-08-04T21:47:28.703Z,26.40
2018-08-04T21:49:57.402Z,26.40
2018-08-04T21:52:26.171Z,26.40
2018-08-04T21:54:55.390Z,26.30
2018-08-04T21:57:24.156Z,26.20
2018-08-04T21:59:52.893Z,26.10
2018-08-04T22:02:21.586Z,26.00
2018-08-04T22:04:50.398Z,25.90
2018-08-04T22:07:40.285Z,25.90
2018-08-04T22:12:37.813Z,25.80
2018-08-04T22:15:06.881Z,25.70
2018-08-04T22:17:35.814Z,25.60
2018-08-04T22:20:05.586Z,25.60
2018-08-04T22:22:34.340Z,25.60
2018-08-04T22:25:03.025Z,25.60
2018-08-04T22:27:31.835Z,25.60
2018-08-04T22:30:00.597Z,25.50
2018-08-04T22:32:29.312Z,25.50
2018-08-04T22:34:58.041Z,25.50
2018-08-04T22:37:26.729Z,25.40
2018-08-04T22:39:55.414Z,25.30
2018-08-04T22:42:24.153Z,25.20
2018-08-04T22:47:28.273Z,25.10
2018-08-04T22:55:01.457Z,24.90
2018-08-04T22:57:30.285Z,24.90
2018-08-04T23:02:27.579Z,24.80
2018-08-04T23:04:56.283Z,24.70
2018-08-04T23:07:25.890Z,24.70
2018-08-04T23:09:55.366Z,24.60
2018-08-04T23:12:24.141Z,24.50
2018-08-04T23:14:52.883Z,24.50
2018-08-04T23:19:50.205Z,24.40
2018-08-04T23:22:19.307Z,24.40
2018-08-04T23:27:21.996Z,24.20
2018-08-04T23:32:42.547Z,24.20
2018-08-04T23:35:28.549Z,24.20
2018-08-04T23:37:57.976Z,24.20
2018-08-04T23:40:27.385Z,24.10
2018-08-04T23:42:56.112Z,24.00
2018-08-04T23:45:25.397Z,24.00
2018-08-04T23:47:54.138Z,23.90
2018-08-04T23:50:22.808Z,23.80
2018-08-04T23:52:51.541Z,23.80
2018-08-04T23:55:20.352Z,23.80
